Time;durP1;ratioP1;P1;durP2;ratioP2;P2;SDS_P1;SDS_P2;PMS_P1;PMS_P2;Temp;Humidity;BMP_temperature;BMP_pressure;BME280_temperature;BME280_humidity;BME280_pressure;Samples;Min_cycle;Max_cycle;Signal;HPM_P1;HPM_P2
2022/12/16 00:00:23;;;;;;;5.47;3.97;;;;;;;;;;5022617;28;20124;-88
2022/12/16 00:02:49;;;;;;;3.80;3.15;;;;;;;;;;5024291;28;20568;-87
2022/12/16 00:05:15;;;;;;;7.70;3.67;;;;;;;;;;5025111;28;20032;-84
2022/12/16 00:07:40;;;;;;;10.13;3.80;;;;;;;;;;5022983;28;20109;-83
2022/12/16 00:10:06;;;;;;;3.58;3.03;;;;;;;;;;5020374;28;20022;-84
2022/12/16 00:12:32;;;;;;;5.15;3.83;;;;;;;;;;5020604;28;20030;-85
2022/12/16 00:14:57;;;;;;;6.80;3.70;;;;;;;;;;5029827;28;20025;-84
2022/12/16 00:17:23;;;;;;;4.75;3.40;;;;;;;;;;5023348;28;20053;-86
2022/12/16 00:19:48;;;;;;;4.88;2.58;;;;;;;;;;5023659;28;20083;-85
2022/12/16 00:22:14;;;;;;;4.88;3.40;;;;;;;;;;5025566;28;20087;-87
2022/12/16 00:24:39;;;;;;;6.60;3.55;;;;;;;;;;5025445;28;20481;-84
2022/12/16 00:27:04;;;;;;;7.05;4.43;;;;;;;;;;5023226;28;20030;-83
2022/12/16 00:29:30;;;;;;;6.32;4.88;;;;;;;;;;5020606;28;20029;-84
2022/12/16 00:31:55;;;;;;;8.48;4.35;;;;;;;;;;5022750;28;20022;-84
2022/12/16 00:34:21;;;;;;;8.70;5.45;;;;;;;;;;5020287;28;20030;-85
2022/12/16 00:36:46;;;;;;;14.38;5.82;;;;;;;;;;5022537;28;20043;-84
2022/12/16 00:39:12;;;;;;;5.30;3.30;;;;;;;;;;5016096;28;20059;-86
2022/12/16 00:41:37;;;;;;;4.63;4.15;;;;;;;;;;5020707;28;20397;-84
2022/12/16 00:44:03;;;;;;;4.00;3.58;;;;;;;;;;5023974;28;20021;-83
2022/12/16 00:46:30;;;;;;;8.80;5.70;;;;;;;;;;5020026;28;20108;-84
2022/12/16 00:48:55;;;;;;;9.25;4.20;;;;;;;;;;5024849;28;20389;-85
2022/12/16 00:51:21;;;;;;;9.32;3.58;;;;;;;;;;5022981;28;20022;-82
2022/12/16 00:53:46;;;;;;;4.45;1.65;;;;;;;;;;5025492;28;20021;-85
2022/12/16 00:56:17;;;;;;;5.65;2.58;;;;;;;;;;5022544;28;20466;-83
2022/12/16 00:58:42;;;;;;;2.67;1.85;;;;;;;;;;5023908;28;20030;-84
2022/12/16 01:01:08;;;;;;;1.65;1.50;;;;;;;;;;5017601;28;20049;-82
2022/12/16 01:03:34;;;;;;;2.40;1.65;;;;;;;;;;5022346;28;20100;-84
2022/12/16 01:06:00;;;;;;;3.38;3.00;;;;;;;;;;5019876;28;20034;-83
2022/12/16 01:08:25;;;;;;;3.88;3.05;;;;;;;;;;5018124;28;20037;-84
2022/12/16 01:10:55;;;;;;;4.15;3.15;;;;;;;;;;5019862;28;20030;-83
2022/12/16 01:13:23;;;;;;;4.30;2.78;;;;;;;;;;5021652;28;20029;-86
2022/12/16 01:15:49;;;;;;;9.13;5.50;;;;;;;;;;5024070;28;20466;-83
2022/12/16 01:18:15;;;;;;;6.90;4.43;;;;;;;;;;5019582;28;20030;-86
2022/12/16 01:20:40;;;;;;;4.88;3.80;;;;;;;;;;5018091;28;20505;-86
2022/12/16 01:23:06;;;;;;;6.60;3.75;;;;;;;;;;5022177;28;20092;-83
2022/12/16 01:25:32;;;;;;;5.60;4.70;;;;;;;;;;5022005;28;20026;-82
2022/12/16 01:27:57;;;;;;;9.63;6.20;;;;;;;;;;5027398;28;20083;-86
2022/12/16 01:30:23;;;;;;;8.25;4.60;;;;;;;;;;5018057;28;20034;-84
2022/12/16 01:32:49;;;;;;;6.63;5.25;;;;;;;;;;5026466;28;20034;-85
2022/12/16 01:35:15;;;;;;;6.30;3.83;;;;;;;;;;5023737;28;20040;-84
2022/12/16 01:37:40;;;;;;;11.50;6.40;;;;;;;;;;5021729;28;20022;-85
2022/12/16 01:40:08;;;;;;;5.70;4.88;;;;;;;;;;5023892;28;20033;-83
2022/12/16 01:42:33;;;;;;;7.30;4.63;;;;;;;;;;5019509;28;20068;-83
2022/12/16 01:45:27;;;;;;;10.43;7.45;;;;;;;;;;5017954;28;20120;-84
2022/12/16 01:47:54;;;;;;;8.25;5.78;;;;;;;;;;5021307;28;20022;-82
2022/12/16 01:50:20;;;;;;;12.82;7.90;;;;;;;;;;5022879;28;20389;-85
2022/12/16 01:52:51;;;;;;;8.15;5.28;;;;;;;;;;5015523;28;20022;-83
2022/12/16 01:55:24;;;;;;;10.55;6.85;;;;;;;;;;5021373;28;20048;-86
2022/12/16 01:58:11;;;;;;;10.50;6.53;;;;;;;;;;5025841;28;20139;-85
2022/12/16 02:00:38;;;;;;;8.85;5.03;;;;;;;;;;5023646;28;20494;-87
2022/12/16 02:03:05;;;;;;;7.30;4.20;;;;;;;;;;5020573;28;20058;-87
2022/12/16 02:05:33;;;;;;;6.82;3.72;;;;;;;;;;5020551;28;20041;-83
2022/12/16 02:08:04;;;;;;;8.40;4.88;;;;;;;;;;5021680;28;20084;-85
2022/12/16 02:10:42;;;;;;;4.38;3.65;;;;;;;;;;5021666;28;20397;-86
2022/12/16 02:13:17;;;;;;;8.27;5.28;;;;;;;;;;5026347;28;20026;-86
2022/12/16 02:15:56;;;;;;;4.68;2.95;;;;;;;;;;5023427;28;20381;-85
2022/12/16 02:18:29;;;;;;;9.13;3.95;;;;;;;;;;5017593;28;20105;-84
2022/12/16 02:21:04;;;;;;;4.50;3.40;;;;;;;;;;5021170;28;20504;-86
2022/12/16 02:23:49;;;;;;;4.80;2.88;;;;;;;;;;5018434;28;20042;-84
2022/12/16 02:26:43;;;;;;;3.40;2.13;;;;;;;;;;5019388;28;20493;-85
2022/12/16 02:29:30;;;;;;;3.00;1.95;;;;;;;;;;5014471;28;20093;-88
2022/12/16 02:32:14;;;;;;;2.95;2.35;;;;;;;;;;5024953;28;20022;-85
2022/12/16 02:35:01;;;;;;;2.78;2.13;;;;;;;;;;5027159;28;20033;-88
2022/12/16 02:37:35;;;;;;;3.08;2.20;;;;;;;;;;5022121;28;20478;-85
2022/12/16 02:40:06;;;;;;;3.33;2.47;;;;;;;;;;5028397;28;20030;-85
2022/12/16 02:42:44;;;;;;;4.00;2.13;;;;;;;;;;5024720;28;20041;-86
2022/12/16 02:45:15;;;;;;;3.38;2.22;;;;;;;;;;5024819;28;20125;-84
2022/12/16 02:47:40;;;;;;;4.15;2.40;;;;;;;;;;5025664;28;20030;-87
2022/12/16 02:50:24;;;;;;;4.07;2.13;;;;;;;;;;5024748;28;20508;-84
2022/12/16 02:52:50;;;;;;;4.20;3.67;;;;;;;;;;5027106;28;20036;-87
2022/12/16 02:55:16;;;;;;;9.40;4.60;;;;;;;;;;5025076;28;20025;-83
2022/12/16 02:58:08;;;;;;;8.00;4.38;;;;;;;;;;5024274;28;20033;-85
2022/12/16 03:00:47;;;;;;;9.15;5.18;;;;;;;;;;5025421;28;20045;-85
2022/12/16 03:03:26;;;;;;;4.35;3.95;;;;;;;;;;5023708;28;20029;-85
2022/12/16 03:05:54;;;;;;;4.78;3.17;;;;;;;;;;5021983;28;20104;-85
2022/12/16 03:08:26;;;;;;;4.72;2.30;;;;;;;;;;5025975;28;20083;-83
2022/12/16 03:11:00;;;;;;;5.38;3.78;;;;;;;;;;5024838;28;20072;-86
2022/12/16 03:13:30;;;;;;;5.15;4.15;;;;;;;;;;5023147;28;20410;-84
2022/12/16 03:15:59;;;;;;;2.08;1.80;;;;;;;;;;5024639;28;20022;-85
2022/12/16 03:18:26;;;;;;;5.90;2.15;;;;;;;;;;5025259;28;20037;-85
2022/12/16 03:20:55;;;;;;;1.90;1.17;;;;;;;;;;5023134;28;20045;-85
2022/12/16 03:23:30;;;;;;;12.38;3.50;;;;;;;;;;5024219;28;20057;-85
2022/12/16 03:26:01;;;;;;;2.65;1.60;;;;;;;;;;5023727;28;20044;-83
2022/12/16 03:28:57;;;;;;;3.15;2.65;;;;;;;;;;5028134;28;20092;-86
2022/12/16 03:31:56;;;;;;;1.70;1.50;;;;;;;;;;5022542;28;20025;-85
2022/12/16 03:34:27;;;;;;;3.63;2.72;;;;;;;;;;5021873;28;20025;-87
2022/12/16 03:36:59;;;;;;;4.60;2.78;;;;;;;;;;5022692;28;20021;-85
2022/12/16 03:39:26;;;;;;;2.25;2.00;;;;;;;;;;5020566;28;20040;-85
2022/12/16 03:41:55;;;;;;;2.05;1.70;;;;;;;;;;5019375;28;20033;-84
2022/12/16 03:44:22;;;;;;;3.42;2.65;;;;;;;;;;5021976;28;20033;-82
2022/12/16 03:46:48;;;;;;;5.35;3.15;;;;;;;;;;5022965;28;20029;-87
2022/12/16 03:49:13;;;;;;;6.35;4.40;;;;;;;;;;5020326;28;20470;-83
2022/12/16 03:51:38;;;;;;;5.90;2.70;;;;;;;;;;5020894;28;20385;-83
2022/12/16 03:54:04;;;;;;;10.75;6.40;;;;;;;;;;5019331;28;20466;-84
2022/12/16 03:56:30;;;;;;;7.65;4.50;;;;;;;;;;5020393;28;20029;-85
2022/12/16 03:58:55;;;;;;;11.90;6.72;;;;;;;;;;5024783;28;20034;-83
2022/12/16 04:01:22;;;;;;;6.47;5.30;;;;;;;;;;5023843;28;20048;-86
2022/12/16 04:03:47;;;;;;;7.40;3.97;;;;;;;;;;5025749;28;20025;-82
2022/12/16 04:06:17;;;;;;;6.05;4.00;;;;;;;;;;5024054;28;20079;-82
2022/12/16 04:08:46;;;;;;;7.05;4.95;;;;;;;;;;5023856;28;20060;-83
2022/12/16 04:25:11;;;;;;;15.63;6.10;;;;;;;;;;5026180;28;20041;-83
2022/12/16 04:27:37;;;;;;;10.20;6.07;;;;;;;;;;5030554;28;20034;-82
2022/12/16 04:30:18;;;;;;;10.50;5.47;;;;;;;;;;5022621;28;20033;-85
